sensor_id;sensor_type;location;lat;lon;timestamp;P1;durP1;ratioP1;P2;durP2;ratioP2
17369;SDS011;8802;52.402;4.920;2023-04-03T00:01:40;1.25;;;0.70;;
17369;SDS011;8802;52.402;4.920;2023-04-03T00:04:07;2.67;;;1.20;;
17369;SDS011;8802;52.402;4.920;2023-04-03T00:06:34;1.52;;;1.10;;
17369;SDS011;8802;52.402;4.920;2023-04-03T00:09:01;3.65;;;1.33;;
17369;SDS011;8802;52.402;4.920;2023-04-03T00:11:29;2.83;;;0.93;;
17369;SDS011;8802;52.402;4.920;2023-04-03T00:13:56;2.15;;;1.00;;
17369;SDS011;8802;52.402;4.920;2023-04-03T00:16:23;2.17;;;0.93;;
17369;SDS011;8802;52.402;4.920;2023-04-03T00:18:50;1.75;;;1.02;;
17369;SDS011;8802;52.402;4.920;2023-04-03T00:21:17;3.47;;;1.13;;
17369;SDS011;8802;52.402;4.920;2023-04-03T00:23:44;2.53;;;1.10;;
17369;SDS011;8802;52.402;4.920;2023-04-03T00:26:11;3.22;;;1.15;;
17369;SDS011;8802;52.402;4.920;2023-04-03T00:28:39;1.83;;;1.00;;
17369;SDS011;8802;52.402;4.920;2023-04-03T00:31:06;1.67;;;0.93;;
17369;SDS011;8802;52.402;4.920;2023-04-03T00:33:33;2.55;;;1.13;;
17369;SDS011;8802;52.402;4.920;2023-04-03T00:36:04;1.95;;;1.35;;
17369;SDS011;8802;52.402;4.920;2023-04-03T00:38:32;3.08;;;1.17;;
17369;SDS011;8802;52.402;4.920;2023-04-03T00:40:59;3.47;;;1.25;;
17369;SDS011;8802;52.402;4.920;2023-04-03T00:43:26;2.92;;;1.10;;
17369;SDS011;8802;52.402;4.920;2023-04-03T00:45:55;2.38;;;1.13;;
17369;SDS011;8802;52.402;4.920;2023-04-03T00:48:24;2.40;;;1.02;;
17369;SDS011;8802;52.402;4.920;2023-04-03T00:50:53;2.80;;;1.35;;
17369;SDS011;8802;52.402;4.920;2023-04-03T00:53:22;2.80;;;1.23;;
17369;SDS011;8802;52.402;4.920;2023-04-03T00:55:52;1.55;;;0.90;;
17369;SDS011;8802;52.402;4.920;2023-04-03T00:58:21;2.85;;;1.38;;
17369;SDS011;8802;52.402;4.920;2023-04-03T01:00:54;2.33;;;1.10;;
17369;SDS011;8802;52.402;4.920;2023-04-03T01:03:24;3.70;;;1.17;;
17369;SDS011;8802;52.402;4.920;2023-04-03T01:05:51;2.05;;;1.20;;
17369;SDS011;8802;52.402;4.920;2023-04-03T01:08:18;1.98;;;1.23;;
17369;SDS011;8802;52.402;4.920;2023-04-03T01:10:45;2.28;;;1.30;;
17369;SDS011;8802;52.402;4.920;2023-04-03T01:13:22;2.33;;;1.50;;
17369;SDS011;8802;52.402;4.920;2023-04-03T01:15:51;5.97;;;1.15;;
17369;SDS011;8802;52.402;4.920;2023-04-03T01:18:20;4.13;;;1.27;;
17369;SDS011;8802;52.402;4.920;2023-04-03T01:23:55;3.83;;;1.35;;
17369;SDS011;8802;52.402;4.920;2023-04-03T01:26:30;2.05;;;1.13;;
17369;SDS011;8802;52.402;4.920;2023-04-03T01:28:59;1.60;;;1.13;;
17369;SDS011;8802;52.402;4.920;2023-04-03T01:31:27;2.40;;;1.40;;
17369;SDS011;8802;52.402;4.920;2023-04-03T01:33:59;2.92;;;1.30;;
17369;SDS011;8802;52.402;4.920;2023-04-03T01:36:26;3.05;;;1.50;;
17369;SDS011;8802;52.402;4.920;2023-04-03T01:38:55;4.47;;;1.45;;
17369;SDS011;8802;52.402;4.920;2023-04-03T01:41:23;2.35;;;1.33;;
17369;SDS011;8802;52.402;4.920;2023-04-03T01:43:50;4.07;;;1.70;;
17369;SDS011;8802;52.402;4.920;2023-04-03T01:46:18;2.65;;;1.40;;
17369;SDS011;8802;52.402;4.920;2023-04-03T01:48:45;2.45;;;1.25;;
17369;SDS011;8802;52.402;4.920;2023-04-03T01:51:13;2.78;;;1.17;;
17369;SDS011;8802;52.402;4.920;2023-04-03T01:53:40;3.35;;;1.52;;
17369;SDS011;8802;52.402;4.920;2023-04-03T01:56:07;2.95;;;1.70;;
17369;SDS011;8802;52.402;4.920;2023-04-03T01:58:34;3.55;;;1.60;;
17369;SDS011;8802;52.402;4.920;2023-04-03T02:01:01;2.00;;;1.23;;
17369;SDS011;8802;52.402;4.920;2023-04-03T02:03:29;2.80;;;1.40;;
17369;SDS011;8802;52.402;4.920;2023-04-03T02:05:55;2.97;;;1.65;;
17369;SDS011;8802;52.402;4.920;2023-04-03T02:08:24;2.15;;;1.17;;
17369;SDS011;8802;52.402;4.920;2023-04-03T02:10:51;4.05;;;1.30;;
17369;SDS011;8802;52.402;4.920;2023-04-03T02:13:18;2.72;;;1.30;;
17369;SDS011;8802;52.402;4.920;2023-04-03T02:15:45;2.83;;;1.30;;
17369;SDS011;8802;52.402;4.920;2023-04-03T02:18:12;2.20;;;1.42;;
17369;SDS011;8802;52.402;4.920;2023-04-03T02:20:39;3.75;;;1.48;;
17369;SDS011;8802;52.402;4.920;2023-04-03T02:23:06;2.28;;;1.17;;
17369;SDS011;8802;52.402;4.920;2023-04-03T02:25:35;3.88;;;1.60;;
17369;SDS011;8802;52.402;4.920;2023-04-03T02:28:02;2.28;;;1.60;;
17369;SDS011;8802;52.402;4.920;2023-04-03T02:30:28;2.13;;;1.48;;
17369;SDS011;8802;52.402;4.920;2023-04-03T02:32:55;3.00;;;1.50;;
17369;SDS011;8802;52.402;4.920;2023-04-03T02:35:22;3.88;;;1.73;;
17369;SDS011;8802;52.402;4.920;2023-04-03T02:37:49;4.50;;;1.35;;
17369;SDS011;8802;52.402;4.920;2023-04-03T02:40:16;4.60;;;1.85;;
17369;SDS011;8802;52.402;4.920;2023-04-03T02:42:44;3.25;;;1.75;;
17369;SDS011;8802;52.402;4.920;2023-04-03T02:45:11;3.47;;;1.40;;
17369;SDS011;8802;52.402;4.920;2023-04-03T02:47:38;6.15;;;1.73;;
17369;SDS011;8802;52.402;4.920;2023-04-03T02:50:05;3.80;;;1.60;;
17369;SDS011;8802;52.402;4.920;2023-04-03T02:52:32;3.67;;;1.58;;
17369;SDS011;8802;52.402;4.920;2023-04-03T02:54:59;2.13;;;1.25;;
17369;SDS011;8802;52.402;4.920;2023-04-03T02:57:26;2.58;;;1.55;;
17369;SDS011;8802;52.402;4.920;2023-04-03T02:59:54;5.25;;;1.85;;
17369;SDS011;8802;52.402;4.920;2023-04-03T03:02:21;3.10;;;1.60;;
17369;SDS011;8802;52.402;4.920;2023-04-03T03:04:47;2.25;;;1.40;;
17369;SDS011;8802;52.402;4.920;2023-04-03T03:07:14;3.83;;;1.52;;
17369;SDS011;8802;52.402;4.920;2023-04-03T03:09:41;5.28;;;1.73;;
17369;SDS011;8802;52.402;4.920;2023-04-03T03:12:08;3.38;;;1.70;;
17369;SDS011;8802;52.402;4.920;2023-04-03T03:14:35;2.50;;;1.77;;
17369;SDS011;8802;52.402;4.920;2023-04-03T03:17:03;4.30;;;1.40;;
17369;SDS011;8802;52.402;4.920;2023-04-03T03:19:30;2.63;;;1.65;;
17369;SDS011;8802;52.402;4.920;2023-04-03T03:21:57;4.30;;;1.60;;
17369;SDS011;8802;52.402;4.920;2023-04-03T03:24:24;2.92;;;1.58;;
17369;SDS011;8802;52.402;4.920;2023-04-03T03:26:50;2.83;;;1.63;;
17369;SDS011;8802;52.402;4.920;2023-04-03T03:29:17;3.13;;;1.70;;
17369;SDS011;8802;52.402;4.920;2023-04-03T03:31:44;3.28;;;1.83;;
17369;SDS011;8802;52.402;4.920;2023-04-03T03:34:12;3.90;;;1.33;;
17369;SDS011;8802;52.402;4.920;2023-04-03T03:36:39;2.33;;;1.60;;
17369;SDS011;8802;52.402;4.920;2023-04-03T03:39:06;3.25;;;1.77;;
17369;SDS011;8802;52.402;4.920;2023-04-03T03:41:33;2.97;;;1.95;;
17369;SDS011;8802;52.402;4.920;2023-04-03T03:44:00;2.97;;;1.65;;
17369;SDS011;8802;52.402;4.920;2023-04-03T03:46:27;2.38;;;1.83;;
17369;SDS011;8802;52.402;4.920;2023-04-03T03:48:54;3.47;;;1.80;;
17369;SDS011;8802;52.402;4.920;2023-04-03T03:51:22;3.28;;;1.77;;
17369;SDS011;8802;52.402;4.920;2023-04-03T03:53:49;3.25;;;1.48;;
17369;SDS011;8802;52.402;4.920;2023-04-03T03:56:16;2.78;;;1.92;;
17369;SDS011;8802;52.402;4.920;2023-04-03T03:58:43;3.45;;;1.67;;
17369;SDS011;8802;52.402;4.920;2023-04-03T04:01:10;3.85;;;1.92;;
17369;SDS011;8802;52.402;4.920;2023-04-03T04:03:37;3.08;;;1.70;;
17369;SDS011;8802;52.402;4.920;2023-04-03T04:06:04;2.00;;;1.70;;
17369;SDS011;8802;52.402;4.920;2023-04-03T04:08:33;6.10;;;2.17;;
17369;SDS011;8802;52.402;4.920;2023-04-03T04:11:00;3.83;;;1.90;;
17369;SDS011;8802;52.402;4.920;2023-04-03T04:13:26;3.58;;;2.00;;
17369;SDS011;8802;52.402;4.920;2023-04-03T04:15:53;5.20;;;2.05;;
17369;SDS011;8802;52.402;4.920;2023-04-03T04:18:20;3.28;;;1.83;;
17369;SDS011;8802;52.402;4.920;2023-04-03T04:20:47;1.98;;;1.60;;
17369;SDS011;8802;52.402;4.920;2023-04-03T04:23:15;3.35;;;1.73;;
17369;SDS011;8802;52.402;4.920;2023-04-03T04:25:45;4.95;;;1.80;;
17369;SDS011;8802;52.402;4.920;2023-04-03T04:28:11;4.22;;;2.05;;
17369;SDS011;8802;52.402;4.920;2023-04-03T04:30:38;4.13;;;1.70;;
17369;SDS011;8802;52.402;4.920;2023-04-03T04:33:05;4.70;;;1.67;;
17369;SDS011;8802;52.402;4.920;2023-04-03T04:35:33;2.25;;;1.27;;
17369;SDS011;8802;52.402;4.920;2023-04-03T04:38:00;2.20;;;1.70;;
17369;SDS011;8802;52.402;4.920;2023-04-03T04:40:27;2.33;;;1.60;;
17369;SDS011;8802;52.402;4.920;2023-04-03T04:42:55;3.55;;;1.77;;
17369;SDS011;8802;52.402;4.920;2023-04-03T04:45:22;2.05;;;1.77;;
17369;SDS011;8802;52.402;4.920;2023-04-03T04:47:49;4.97;;;1.60;;
17369;SDS011;8802;52.402;4.920;2023-04-03T04:50:17;2.45;;;1.67;;
17369;SDS011;8802;52.402;4.920;2023-04-03T04:52:44;2.72;;;1.65;;
17369;SDS011;8802;52.402;4.920;2023-04-03T04:55:11;5.07;;;1.85;;
17369;SDS011;8802;52.402;4.920;2023-04-03T04:57:38;3.13;;;1.45;;
17369;SDS011;8802;52.402;4.920;2023-04-03T05:00:07;2.33;;;1.90;;
17369;SDS011;8802;52.402;4.920;2023-04-03T05:02:35;4.72;;;1.90;;
17369;SDS011;8802;52.402;4.920;2023-04-03T05:05:02;3.83;;;1.98;;
17369;SDS011;8802;52.402;4.920;2023-04-03T05:07:29;2.45;;;1.50;;
17369;SDS011;8802;52.402;4.920;2023-04-03T05:09:56;2.25;;;1.63;;
17369;SDS011;8802;52.402;4.920;2023-04-03T05:12:23;3.40;;;1.80;;
17369;SDS011;8802;52.402;4.920;2023-04-03T05:14:50;5.93;;;1.85;;
17369;SDS011;8802;52.402;4.920;2023-04-03T05:17:18;3.55;;;1.67;;
17369;SDS011;8802;52.402;4.920;2023-04-03T05:19:45;2.72;;;1.73;;
17369;SDS011;8802;52.402;4.920;2023-04-03T05:22:12;2.22;;;1.80;;
17369;SDS011;8802;52.402;4.920;2023-04-03T05:24:39;2.72;;;1.77;;
17369;SDS011;8802;52.402;4.920;2023-04-03T05:27:05;3.47;;;1.90;;
17369;SDS011;8802;52.402;4.920;2023-04-03T05:29:32;4.32;;;1.90;;
17369;SDS011;8802;52.402;4.920;2023-04-03T05:31:59;3.83;;;2.05;;
17369;SDS011;8802;52.402;4.920;2023-04-03T05:34:27;4.10;;;1.77;;
17369;SDS011;8802;52.402;4.920;2023-04-03T05:36:54;4.35;;;1.80;;
17369;SDS011;8802;52.402;4.920;2023-04-03T05:39:21;2.30;;;1.67;;
17369;SDS011;8802;52.402;4.920;2023-04-03T05:41:49;3.65;;;1.80;;
17369;SDS011;8802;52.402;4.920;2023-04-03T05:44:16;2.45;;;1.63;;
17369;SDS011;8802;52.402;4.920;2023-04-03T05:46:42;3.80;;;1.83;;
17369;SDS011;8802;52.402;4.920;2023-04-03T05:49:09;3.97;;;2.10;;
17369;SDS011;8802;52.402;4.920;2023-04-03T05:51:38;4.72;;;1.80;;
17369;SDS011;8802;52.402;4.920;2023-04-03T05:54:08;2.58;;;1.77;;
17369;SDS011;8802;52.402;4.920;2023-04-03T05:56:38;3.92;;;1.42;;
17369;SDS011;8802;52.402;4.920;2023-04-03T05:59:05;2.00;;;1.42;;
17369;SDS011;8802;52.402;4.920;2023-04-03T06:01:32;4.32;;;1.80;;
17369;SDS011;8802;52.402;4.920;2023-04-03T06:04:00;3.70;;;2.08;;
17369;SDS011;8802;52.402;4.920;2023-04-03T06:09:12;2.97;;;1.83;;
17369;SDS011;8802;52.402;4.920;2023-04-03T06:11:39;3.53;;;1.70;;
17369;SDS011;8802;52.402;4.920;2023-04-03T06:14:06;3.20;;;1.65;;
17369;SDS011;8802;52.402;4.920;2023-04-03T06:16:34;3.67;;;1.60;;
17369;SDS011;8802;52.402;4.920;2023-04-03T06:19:01;4.82;;;1.92;;
17369;SDS011;8802;52.402;4.920;2023-04-03T06:21:29;4.55;;;1.88;;
17369;SDS011;8802;52.402;4.920;2023-04-03T06:23:57;4.05;;;2.00;;
17369;SDS011;8802;52.402;4.920;2023-04-03T06:26:24;4.30;;;1.90;;
17369;SDS011;8802;52.402;4.920;2023-04-03T06:28:51;3.88;;;2.10;;
17369;SDS011;8802;52.402;4.920;2023-04-03T06:31:18;3.85;;;1.90;;
17369;SDS011;8802;52.402;4.920;2023-04-03T06:33:45;4.00;;;1.60;;
17369;SDS011;8802;52.402;4.920;2023-04-03T06:36:12;6.95;;;2.05;;
17369;SDS011;8802;52.402;4.920;2023-04-03T06:38:38;4.15;;;1.85;;
17369;SDS011;8802;52.402;4.920;2023-04-03T06:41:07;2.50;;;1.75;;
17369;SDS011;8802;52.402;4.920;2023-04-03T06:43:34;5.28;;;1.92;;
17369;SDS011;8802;52.402;4.920;2023-04-03T06:46:01;5.68;;;2.55;;
17369;SDS011;8802;52.402;4.920;2023-04-03T06:48:28;4.43;;;1.95;;
17369;SDS011;8802;52.402;4.920;2023-04-03T06:50:55;5.85;;;2.00;;
17369;SDS011;8802;52.402;4.920;2023-04-03T06:53:22;3.67;;;1.88;;
17369;SDS011;8802;52.402;4.920;2023-04-03T06:55:50;3.17;;;1.77;;
17369;SDS011;8802;52.402;4.920;2023-04-03T06:58:18;3.75;;;1.75;;
17369;SDS011;8802;52.402;4.920;2023-04-03T07:00:45;5.25;;;1.83;;
17369;SDS011;8802;52.402;4.920;2023-04-03T07:03:12;5.80;;;2.40;;
17369;SDS011;8802;52.402;4.920;2023-04-03T07:05:39;3.88;;;2.03;;
17369;SDS011;8802;52.402;4.920;2023-04-03T07:08:07;4.82;;;2.35;;
17369;SDS011;8802;52.402;4.920;2023-04-03T07:10:34;5.15;;;2.20;;
17369;SDS011;8802;52.402;4.920;2023-04-03T07:13:01;4.22;;;2.17;;
17369;SDS011;8802;52.402;4.920;2023-04-03T07:15:29;2.65;;;1.75;;
17369;SDS011;8802;52.402;4.920;2023-04-03T07:17:56;2.65;;;1.90;;
17369;SDS011;8802;52.402;4.920;2023-04-03T07:20:23;3.10;;;1.88;;
17369;SDS011;8802;52.402;4.920;2023-04-03T07:22:50;4.88;;;1.92;;
17369;SDS011;8802;52.402;4.920;2023-04-03T07:25:17;4.40;;;2.08;;
17369;SDS011;8802;52.402;4.920;2023-04-03T07:27:44;2.58;;;1.77;;
17369;SDS011;8802;52.402;4.920;2023-04-03T07:30:11;5.18;;;2.08;;
17369;SDS011;8802;52.402;4.920;2023-04-03T07:32:40;4.60;;;1.98;;
17369;SDS011;8802;52.402;4.920;2023-04-03T07:35:07;4.80;;;2.17;;
17369;SDS011;8802;52.402;4.920;2023-04-03T07:37:34;4.28;;;2.30;;
17369;SDS011;8802;52.402;4.920;2023-04-03T07:40:02;5.72;;;1.92;;
17369;SDS011;8802;52.402;4.920;2023-04-03T07:42:30;5.13;;;2.25;;
17369;SDS011;8802;52.402;4.920;2023-04-03T07:44:57;4.35;;;2.00;;
17369;SDS011;8802;52.402;4.920;2023-04-03T07:47:24;4.60;;;2.00;;
17369;SDS011;8802;52.402;4.920;2023-04-03T07:49:52;5.78;;;1.88;;
17369;SDS011;8802;52.402;4.920;2023-04-03T07:52:19;3.92;;;1.92;;
17369;SDS011;8802;52.402;4.920;2023-04-03T07:54:46;4.38;;;2.15;;
17369;SDS011;8802;52.402;4.920;2023-04-03T07:57:13;4.15;;;1.98;;
17369;SDS011;8802;52.402;4.920;2023-04-03T07:59:40;4.90;;;1.92;;
17369;SDS011;8802;52.402;4.920;2023-04-03T08:02:08;6.63;;;1.98;;
17369;SDS011;8802;52.402;4.920;2023-04-03T08:04:35;5.00;;;2.15;;
17369;SDS011;8802;52.402;4.920;2023-04-03T08:07:03;4.10;;;2.17;;
17369;SDS011;8802;52.402;4.920;2023-04-03T08:09:31;3.95;;;1.90;;
17369;SDS011;8802;52.402;4.920;2023-04-03T08:11:57;4.68;;;1.80;;
17369;SDS011;8802;52.402;4.920;2023-04-03T08:14:24;5.00;;;1.92;;
17369;SDS011;8802;52.402;4.920;2023-04-03T08:16:51;3.97;;;1.52;;
17369;SDS011;8802;52.402;4.920;2023-04-03T08:19:18;3.63;;;1.58;;
17369;SDS011;8802;52.402;4.920;2023-04-03T08:21:45;3.42;;;1.65;;
17369;SDS011;8802;52.402;4.920;2023-04-03T08:24:13;3.05;;;1.48;;
17369;SDS011;8802;52.402;4.920;2023-04-03T08:26:40;2.58;;;1.33;;
17369;SDS011;8802;52.402;4.920;2023-04-03T08:29:07;2.08;;;1.35;;
17369;SDS011;8802;52.402;4.920;2023-04-03T08:31:34;4.20;;;1.92;;
17369;SDS011;8802;52.402;4.920;2023-04-03T08:34:01;4.40;;;1.75;;
17369;SDS011;8802;52.402;4.920;2023-04-03T08:36:28;2.58;;;1.60;;
17369;SDS011;8802;52.402;4.920;2023-04-03T08:38:56;3.92;;;1.48;;
17369;SDS011;8802;52.402;4.920;2023-04-03T08:41:27;3.13;;;1.38;;
17369;SDS011;8802;52.402;4.920;2023-04-03T08:44:01;3.38;;;1.58;;
17369;SDS011;8802;52.402;4.920;2023-04-03T08:46:40;3.78;;;1.80;;
17369;SDS011;8802;52.402;4.920;2023-04-03T08:49:22;4.00;;;1.83;;
17369;SDS011;8802;52.402;4.920;2023-04-03T08:51:54;2.75;;;1.45;;
17369;SDS011;8802;52.402;4.920;2023-04-03T08:54:24;3.47;;;1.60;;
17369;SDS011;8802;52.402;4.920;2023-04-03T08:56:56;3.08;;;1.73;;
17369;SDS011;8802;52.402;4.920;2023-04-03T08:59:26;1.90;;;1.40;;
17369;SDS011;8802;52.402;4.920;2023-04-03T09:01:57;2.17;;;1.23;;
17369;SDS011;8802;52.402;4.920;2023-04-03T09:04:29;2.47;;;1.42;;
17369;SDS011;8802;52.402;4.920;2023-04-03T09:07:02;2.25;;;1.30;;
17369;SDS011;8802;52.402;4.920;2023-04-03T09:09:36;2.03;;;1.20;;
17369;SDS011;8802;52.402;4.920;2023-04-03T09:12:10;3.00;;;1.55;;
17369;SDS011;8802;52.402;4.920;2023-04-03T09:14:44;1.95;;;1.23;;
17369;SDS011;8802;52.402;4.920;2023-04-03T09:17:21;2.85;;;1.30;;
17369;SDS011;8802;52.402;4.920;2023-04-03T09:19:58;3.05;;;1.48;;
17369;SDS011;8802;52.402;4.920;2023-04-03T09:22:32;2.35;;;1.38;;
17369;SDS011;8802;52.402;4.920;2023-04-03T09:25:05;3.67;;;1.40;;
17369;SDS011;8802;52.402;4.920;2023-04-03T09:27:39;2.63;;;1.20;;
17369;SDS011;8802;52.402;4.920;2023-04-03T09:30:11;2.42;;;1.30;;
17369;SDS011;8802;52.402;4.920;2023-04-03T09:32:40;4.28;;;1.48;;
17369;SDS011;8802;52.402;4.920;2023-04-03T09:35:15;4.10;;;1.60;;
17369;SDS011;8802;52.402;4.920;2023-04-03T09:37:46;3.22;;;1.23;;
17369;SDS011;8802;52.402;4.920;2023-04-03T09:40:31;2.58;;;1.15;;
17369;SDS011;8802;52.402;4.920;2023-04-03T09:43:19;3.40;;;1.15;;
17369;SDS011;8802;52.402;4.920;2023-04-03T09:45:51;1.90;;;0.82;;
17369;SDS011;8802;52.402;4.920;2023-04-03T09:48:20;2.03;;;1.00;;
17369;SDS011;8802;52.402;4.920;2023-04-03T09:50:55;1.88;;;0.88;;
17369;SDS011;8802;52.402;4.920;2023-04-03T09:53:29;1.80;;;0.80;;
17369;SDS011;8802;52.402;4.920;2023-04-03T09:55:59;1.42;;;0.80;;
17369;SDS011;8802;52.402;4.920;2023-04-03T09:58:30;1.95;;;0.77;;
17369;SDS011;8802;52.402;4.920;2023-04-03T10:00:59;2.03;;;1.00;;
17369;SDS011;8802;52.402;4.920;2023-04-03T10:03:29;1.88;;;0.82;;
17369;SDS011;8802;52.402;4.920;2023-04-03T10:05:58;1.35;;;0.80;;
17369;SDS011;8802;52.402;4.920;2023-04-03T10:08:27;1.88;;;1.00;;
17369;SDS011;8802;52.402;4.920;2023-04-03T10:11:06;2.97;;;0.90;;
17369;SDS011;8802;52.402;4.920;2023-04-03T10:13:51;1.75;;;0.73;;
17369;SDS011;8802;52.402;4.920;2023-04-03T10:16:21;1.73;;;0.98;;
17369;SDS011;8802;52.402;4.920;2023-04-03T10:18:55;1.70;;;0.63;;
17369;SDS011;8802;52.402;4.920;2023-04-03T10:21:30;2.00;;;0.82;;
17369;SDS011;8802;52.402;4.920;2023-04-03T10:24:07;1.60;;;0.73;;
17369;SDS011;8802;52.402;4.920;2023-04-03T10:26:39;1.65;;;0.70;;
17369;SDS011;8802;52.402;4.920;2023-04-03T10:29:15;2.25;;;0.73;;
17369;SDS011;8802;52.402;4.920;2023-04-03T10:31:54;2.88;;;0.52;;
17369;SDS011;8802;52.402;4.920;2023-04-03T10:34:28;1.02;;;0.80;;
17369;SDS011;8802;52.402;4.920;2023-04-03T10:37:01;1.85;;;1.10;;
17369;SDS011;8802;52.402;4.920;2023-04-03T10:39:39;1.83;;;0.70;;
17369;SDS011;8802;52.402;4.920;2023-04-03T10:42:13;2.63;;;0.90;;
17369;SDS011;8802;52.402;4.920;2023-04-03T10:44:51;1.70;;;0.68;;
17369;SDS011;8802;52.402;4.920;2023-04-03T10:47:36;1.52;;;0.60;;
17369;SDS011;8802;52.402;4.920;2023-04-03T10:50:15;1.30;;;0.50;;
17369;SDS011;8802;52.402;4.920;2023-04-03T10:52:57;1.35;;;0.50;;
17369;SDS011;8802;52.402;4.920;2023-04-03T10:55:31;0.98;;;0.50;;
17369;SDS011;8802;52.402;4.920;2023-04-03T10:58:03;1.25;;;0.80;;
17369;SDS011;8802;52.402;4.920;2023-04-03T11:00:35;1.02;;;0.43;;
17369;SDS011;8802;52.402;4.920;2023-04-03T11:03:06;1.25;;;0.60;;
17369;SDS011;8802;52.402;4.920;2023-04-03T11:05:39;1.55;;;0.70;;
17369;SDS011;8802;52.402;4.920;2023-04-03T11:08:13;0.98;;;0.60;;
17369;SDS011;8802;52.402;4.920;2023-04-03T11:10:48;0.80;;;0.60;;
17369;SDS011;8802;52.402;4.920;2023-04-03T11:13:17;1.40;;;0.65;;
17369;SDS011;8802;52.402;4.920;2023-04-03T11:15:49;0.82;;;0.50;;
17369;SDS011;8802;52.402;4.920;2023-04-03T11:18:20;1.15;;;0.50;;
17369;SDS011;8802;52.402;4.920;2023-04-03T11:20:53;1.35;;;0.57;;
17369;SDS011;8802;52.402;4.920;2023-04-03T11:23:28;0.90;;;0.50;;
17369;SDS011;8802;52.402;4.920;2023-04-03T11:26:01;2.17;;;0.75;;
17369;SDS011;8802;52.402;4.920;2023-04-03T11:28:35;3.13;;;0.70;;
17369;SDS011;8802;52.402;4.920;2023-04-03T11:31:06;1.40;;;0.40;;
17369;SDS011;8802;52.402;4.920;2023-04-03T11:33:41;1.27;;;0.52;;
17369;SDS011;8802;52.402;4.920;2023-04-03T11:36:18;4.32;;;0.55;;
17369;SDS011;8802;52.402;4.920;2023-04-03T11:38:48;1.48;;;0.68;;
17369;SDS011;8802;52.402;4.920;2023-04-03T11:41:22;1.13;;;0.60;;
17369;SDS011;8802;52.402;4.920;2023-04-03T11:43:56;2.60;;;0.82;;
17369;SDS011;8802;52.402;4.920;2023-04-03T11:58:27;2.30;;;0.55;;
17369;SDS011;8802;52.402;4.920;2023-04-03T12:01:06;0.98;;;0.45;;
17369;SDS011;8802;52.402;4.920;2023-04-03T12:12:29;2.40;;;0.47;;
17369;SDS011;8802;52.402;4.920;2023-04-03T12:15:11;2.03;;;0.55;;
17369;SDS011;8802;52.402;4.920;2023-04-03T12:17:45;0.90;;;0.60;;
17369;SDS011;8802;52.402;4.920;2023-04-03T12:23:24;1.10;;;0.47;;
17369;SDS011;8802;52.402;4.920;2023-04-03T12:25:52;0.65;;;0.45;;
17369;SDS011;8802;52.402;4.920;2023-04-03T12:28:28;1.85;;;0.50;;
17369;SDS011;8802;52.402;4.920;2023-04-03T12:30:55;1.15;;;0.68;;
17369;SDS011;8802;52.402;4.920;2023-04-03T12:33:26;1.55;;;0.73;;
17369;SDS011;8802;52.402;4.920;2023-04-03T12:36:06;2.25;;;0.50;;
17369;SDS011;8802;52.402;4.920;2023-04-03T12:41:29;2.05;;;0.70;;
17369;SDS011;8802;52.402;4.920;2023-04-03T12:44:09;1.30;;;0.80;;
17369;SDS011;8802;52.402;4.920;2023-04-03T12:46:46;1.05;;;0.60;;
17369;SDS011;8802;52.402;4.920;2023-04-03T12:52:05;0.90;;;0.57;;
17369;SDS011;8802;52.402;4.920;2023-04-03T12:54:43;0.90;;;0.60;;
17369;SDS011;8802;52.402;4.920;2023-04-03T12:57:20;2.60;;;0.55;;
17369;SDS011;8802;52.402;4.920;2023-04-03T12:59:50;1.25;;;0.60;;
17369;SDS011;8802;52.402;4.920;2023-04-03T13:02:21;1.40;;;0.60;;
17369;SDS011;8802;52.402;4.920;2023-04-03T13:04:52;2.33;;;0.70;;
17369;SDS011;8802;52.402;4.920;2023-04-03T13:07:25;1.75;;;0.77;;
17369;SDS011;8802;52.402;4.920;2023-04-03T13:10:01;1.50;;;0.50;;
17369;SDS011;8802;52.402;4.920;2023-04-03T13:12:45;1.00;;;0.73;;
17369;SDS011;8802;52.402;4.920;2023-04-03T13:15:15;2.67;;;0.70;;
17369;SDS011;8802;52.402;4.920;2023-04-03T13:17:43;2.22;;;0.73;;
17369;SDS011;8802;52.402;4.920;2023-04-03T13:20:14;1.77;;;0.93;;
17369;SDS011;8802;52.402;4.920;2023-04-03T13:22:48;1.83;;;0.68;;
17369;SDS011;8802;52.402;4.920;2023-04-03T13:25:18;1.05;;;0.73;;
17369;SDS011;8802;52.402;4.920;2023-04-03T13:27:47;2.28;;;0.85;;
17369;SDS011;8802;52.402;4.920;2023-04-03T13:30:19;2.45;;;0.73;;
17369;SDS011;8802;52.402;4.920;2023-04-03T13:32:53;1.67;;;0.90;;
17369;SDS011;8802;52.402;4.920;2023-04-03T13:35:24;1.73;;;0.85;;
17369;SDS011;8802;52.402;4.920;2023-04-03T13:38:04;1.98;;;0.70;;
17369;SDS011;8802;52.402;4.920;2023-04-03T13:40:48;2.38;;;1.00;;
17369;SDS011;8802;52.402;4.920;2023-04-03T13:43:17;1.58;;;0.60;;
17369;SDS011;8802;52.402;4.920;2023-04-03T13:45:53;1.50;;;0.90;;
17369;SDS011;8802;52.402;4.920;2023-04-03T13:48:23;2.50;;;0.70;;
17369;SDS011;8802;52.402;4.920;2023-04-03T13:50:51;1.92;;;0.98;;
17369;SDS011;8802;52.402;4.920;2023-04-03T13:53:22;2.42;;;1.05;;
17369;SDS011;8802;52.402;4.920;2023-04-03T13:56:00;2.20;;;0.80;;
17369;SDS011;8802;52.402;4.920;2023-04-03T13:58:33;2.40;;;0.90;;
17369;SDS011;8802;52.402;4.920;2023-04-03T14:01:06;1.58;;;0.77;;
17369;SDS011;8802;52.402;4.920;2023-04-03T14:03:39;1.77;;;0.75;;
17369;SDS011;8802;52.402;4.920;2023-04-03T14:06:10;1.73;;;0.70;;
17369;SDS011;8802;52.402;4.920;2023-04-03T14:08:40;1.30;;;0.77;;
17369;SDS011;8802;52.402;4.920;2023-04-03T14:11:08;1.98;;;0.82;;
17369;SDS011;8802;52.402;4.920;2023-04-03T14:13:40;1.30;;;0.80;;
17369;SDS011;8802;52.402;4.920;2023-04-03T14:16:07;1.65;;;0.82;;
17369;SDS011;8802;52.402;4.920;2023-04-03T14:18:34;3.05;;;0.88;;
17369;SDS011;8802;52.402;4.920;2023-04-03T14:21:01;1.83;;;1.00;;
17369;SDS011;8802;52.402;4.920;2023-04-03T14:23:28;1.92;;;0.88;;
17369;SDS011;8802;52.402;4.920;2023-04-03T14:25:57;1.75;;;0.88;;
17369;SDS011;8802;52.402;4.920;2023-04-03T14:28:25;2.22;;;1.00;;
17369;SDS011;8802;52.402;4.920;2023-04-03T14:30:52;1.85;;;0.77;;
17369;SDS011;8802;52.402;4.920;2023-04-03T14:33:20;1.35;;;0.73;;
17369;SDS011;8802;52.402;4.920;2023-04-03T14:35:48;1.27;;;0.80;;
17369;SDS011;8802;52.402;4.920;2023-04-03T14:38:20;3.13;;;0.85;;
17369;SDS011;8802;52.402;4.920;2023-04-03T14:40:50;2.60;;;0.90;;
17369;SDS011;8802;52.402;4.920;2023-04-03T14:43:19;2.17;;;1.00;;
17369;SDS011;8802;52.402;4.920;2023-04-03T14:45:47;2.00;;;1.00;;
17369;SDS011;8802;52.402;4.920;2023-04-03T14:48:16;1.17;;;0.73;;
17369;SDS011;8802;52.402;4.920;2023-04-03T14:50:45;1.48;;;0.80;;
17369;SDS011;8802;52.402;4.920;2023-04-03T14:53:13;2.80;;;1.00;;
17369;SDS011;8802;52.402;4.920;2023-04-03T14:55:42;3.05;;;1.02;;
17369;SDS011;8802;52.402;4.920;2023-04-03T14:58:14;1.75;;;1.08;;
17369;SDS011;8802;52.402;4.920;2023-04-03T15:00:43;1.40;;;0.82;;
17369;SDS011;8802;52.402;4.920;2023-04-03T15:03:12;2.60;;;0.93;;
17369;SDS011;8802;52.402;4.920;2023-04-03T15:05:40;1.85;;;0.95;;
17369;SDS011;8802;52.402;4.920;2023-04-03T15:08:10;2.38;;;0.90;;
17369;SDS011;8802;52.402;4.920;2023-04-03T15:10:44;1.63;;;0.70;;
17369;SDS011;8802;52.402;4.920;2023-04-03T15:13:11;2.10;;;0.90;;
17369;SDS011;8802;52.402;4.920;2023-04-03T15:15:39;1.85;;;0.90;;
17369;SDS011;8802;52.402;4.920;2023-04-03T15:18:09;0.95;;;0.70;;
17369;SDS011;8802;52.402;4.920;2023-04-03T15:20:39;1.40;;;1.00;;
17369;SDS011;8802;52.402;4.920;2023-04-03T15:23:06;2.58;;;1.23;;
17369;SDS011;8802;52.402;4.920;2023-04-03T15:25:33;3.10;;;1.15;;
17369;SDS011;8802;52.402;4.920;2023-04-03T15:28:00;2.63;;;1.20;;
17369;SDS011;8802;52.402;4.920;2023-04-03T15:30:27;1.58;;;0.80;;
17369;SDS011;8802;52.402;4.920;2023-04-03T15:32:54;1.73;;;0.77;;
17369;SDS011;8802;52.402;4.920;2023-04-03T15:35:22;2.25;;;0.90;;
17369;SDS011;8802;52.402;4.920;2023-04-03T15:37:49;2.05;;;0.95;;
17369;SDS011;8802;52.402;4.920;2023-04-03T15:40:16;3.45;;;1.00;;
17369;SDS011;8802;52.402;4.920;2023-04-03T15:42:43;2.60;;;1.30;;
17369;SDS011;8802;52.402;4.920;2023-04-03T15:45:10;2.33;;;1.10;;
17369;SDS011;8802;52.402;4.920;2023-04-03T15:47:37;2.25;;;0.98;;
17369;SDS011;8802;52.402;4.920;2023-04-03T15:50:05;1.80;;;0.80;;